sensor_id;sensor_type;location;lat;lon;timestamp;P1;P2;P0
72307;PMS5003;60257;42.638;23.376;2024-03-29T00:00:47;11.33;7.00;4.00
72307;PMS5003;60257;42.638;23.376;2024-03-29T00:02:47;8.00;7.00;4.00
72307;PMS5003;60257;42.638;23.376;2024-03-29T00:04:48;10.00;8.67;6.00
72307;PMS5003;60257;42.638;23.376;2024-03-29T00:06:48;9.33;9.33;5.00
72307;PMS5003;60257;42.638;23.376;2024-03-29T00:08:48;5.67;5.67;3.00
72307;PMS5003;60257;42.638;23.376;2024-03-29T00:10:49;6.67;5.33;3.00
72307;PMS5003;60257;42.638;23.376;2024-03-29T00:12:49;7.67;5.00;3.33
72307;PMS5003;60257;42.638;23.376;2024-03-29T00:14:49;3.00;3.00;2.00
72307;PMS5003;60257;42.638;23.376;2024-03-29T00:16:51;6.33;5.67;4.00
72307;PMS5003;60257;42.638;23.376;2024-03-29T00:18:52;6.33;5.33;2.67
72307;PMS5003;60257;42.638;23.376;2024-03-29T00:20:52;8.00;8.00;4.00
72307;PMS5003;60257;42.638;23.376;2024-03-29T00:22:52;7.00;7.00;4.00
72307;PMS5003;60257;42.638;23.376;2024-03-29T00:24:53;5.33;5.33;2.00
72307;PMS5003;60257;42.638;23.376;2024-03-29T00:26:53;5.00;4.67;2.00
72307;PMS5003;60257;42.638;23.376;2024-03-29T00:28:53;5.33;5.00;3.00
72307;PMS5003;60257;42.638;23.376;2024-03-29T00:30:55;3.00;3.00;2.00
72307;PMS5003;60257;42.638;23.376;2024-03-29T00:32:55;7.00;5.67;3.00
72307;PMS5003;60257;42.638;23.376;2024-03-29T00:34:56;2.33;2.33;0.00
72307;PMS5003;60257;42.638;23.376;2024-03-29T00:36:58;3.00;3.00;1.00
72307;PMS5003;60257;42.638;23.376;2024-03-29T00:38:58;4.00;4.00;2.00
72307;PMS5003;60257;42.638;23.376;2024-03-29T00:40:58;2.33;2.33;0.33
72307;PMS5003;60257;42.638;23.376;2024-03-29T00:42:58;5.67;3.00;1.00
72307;PMS5003;60257;42.638;23.376;2024-03-29T00:44:59;3.67;3.67;2.00
72307;PMS5003;60257;42.638;23.376;2024-03-29T00:46:59;4.33;3.00;2.00
72307;PMS5003;60257;42.638;23.376;2024-03-29T00:49:00;3.67;3.00;1.33
72307;PMS5003;60257;42.638;23.376;2024-03-29T00:51:00;3.00;2.33;1.33
72307;PMS5003;60257;42.638;23.376;2024-03-29T00:53:01;3.67;3.00;2.00
72307;PMS5003;60257;42.638;23.376;2024-03-29T00:55:01;2.00;2.00;2.00
72307;PMS5003;60257;42.638;23.376;2024-03-29T00:57:02;5.33;5.33;2.33
72307;PMS5003;60257;42.638;23.376;2024-03-29T00:59:03;4.00;3.33;2.00
72307;PMS5003;60257;42.638;23.376;2024-03-29T01:01:03;3.00;2.00;0.33
72307;PMS5003;60257;42.638;23.376;2024-03-29T01:03:04;6.33;5.00;3.00
72307;PMS5003;60257;42.638;23.376;2024-03-29T01:05:05;1.00;1.00;0.00
72307;PMS5003;60257;42.638;23.376;2024-03-29T01:07:06;5.00;5.00;3.00
72307;PMS5003;60257;42.638;23.376;2024-03-29T01:09:07;5.00;4.00;2.00
72307;PMS5003;60257;42.638;23.376;2024-03-29T01:11:11;2.33;2.33;1.33
72307;PMS5003;60257;42.638;23.376;2024-03-29T01:13:11;4.00;4.00;2.00
72307;PMS5003;60257;42.638;23.376;2024-03-29T01:15:12;5.00;5.00;2.00
72307;PMS5003;60257;42.638;23.376;2024-03-29T01:17:12;5.00;4.00;2.00
72307;PMS5003;60257;42.638;23.376;2024-03-29T01:19:12;7.00;4.00;2.33
72307;PMS5003;60257;42.638;23.376;2024-03-29T01:21:13;5.00;3.33;2.00
72307;PMS5003;60257;42.638;23.376;2024-03-29T01:23:14;3.00;3.00;2.00
72307;PMS5003;60257;42.638;23.376;2024-03-29T01:25:14;4.00;4.00;2.00
72307;PMS5003;60257;42.638;23.376;2024-03-29T01:27:17;3.67;3.67;2.00
72307;PMS5003;60257;42.638;23.376;2024-03-29T01:29:17;6.67;4.00;2.00
72307;PMS5003;60257;42.638;23.376;2024-03-29T01:31:18;8.00;4.00;2.00
72307;PMS5003;60257;42.638;23.376;2024-03-29T01:33:18;7.00;6.00;3.00
72307;PMS5003;60257;42.638;23.376;2024-03-29T01:35:18;4.67;4.00;2.00
72307;PMS5003;60257;42.638;23.376;2024-03-29T01:37:19;2.67;2.67;2.00
72307;PMS5003;60257;42.638;23.376;2024-03-29T01:39:19;4.67;4.67;2.00
72307;PMS5003;60257;42.638;23.376;2024-03-29T01:41:23;2.33;2.33;1.67
72307;PMS5003;60257;42.638;23.376;2024-03-29T01:43:25;4.33;4.33;3.00
72307;PMS5003;60257;42.638;23.376;2024-03-29T01:45:27;6.00;5.00;3.00
72307;PMS5003;60257;42.638;23.376;2024-03-29T01:47:30;4.33;4.33;2.00
72307;PMS5003;60257;42.638;23.376;2024-03-29T01:49:30;5.33;5.33;3.00
72307;PMS5003;60257;42.638;23.376;2024-03-29T01:51:31;4.00;4.00;2.00
72307;PMS5003;60257;42.638;23.376;2024-03-29T01:53:37;6.33;5.33;2.00
72307;PMS5003;60257;42.638;23.376;2024-03-29T01:55:37;3.67;3.67;2.00
72307;PMS5003;60257;42.638;23.376;2024-03-29T01:57:38;3.67;3.67;2.00
72307;PMS5003;60257;42.638;23.376;2024-03-29T01:59:40;6.00;6.00;3.00
72307;PMS5003;60257;42.638;23.376;2024-03-29T02:01:43;4.67;4.33;2.00
72307;PMS5003;60257;42.638;23.376;2024-03-29T02:03:46;6.00;6.00;2.67
72307;PMS5003;60257;42.638;23.376;2024-03-29T02:05:47;4.67;3.00;2.00
72307;PMS5003;60257;42.638;23.376;2024-03-29T02:07:49;4.67;4.00;2.33
72307;PMS5003;60257;42.638;23.376;2024-03-29T02:09:49;8.67;4.33;2.00
72307;PMS5003;60257;42.638;23.376;2024-03-29T02:11:49;5.00;5.00;3.00
72307;PMS5003;60257;42.638;23.376;2024-03-29T02:13:51;3.00;3.00;2.00
72307;PMS5003;60257;42.638;23.376;2024-03-29T02:15:52;1.00;1.00;1.00
72307;PMS5003;60257;42.638;23.376;2024-03-29T02:17:53;6.00;4.33;2.00
72307;PMS5003;60257;42.638;23.376;2024-03-29T02:19:53;6.00;5.00;3.00
72307;PMS5003;60257;42.638;23.376;2024-03-29T02:21:53;5.00;4.67;3.00
72307;PMS5003;60257;42.638;23.376;2024-03-29T02:24:00;4.00;3.33;2.00
72307;PMS5003;60257;42.638;23.376;2024-03-29T02:26:07;5.33;3.67;1.00
72307;PMS5003;60257;42.638;23.376;2024-03-29T02:28:08;5.00;3.33;1.00
72307;PMS5003;60257;42.638;23.376;2024-03-29T02:30:08;5.33;4.00;3.00
72307;PMS5003;60257;42.638;23.376;2024-03-29T02:32:13;3.33;3.33;2.33
72307;PMS5003;60257;42.638;23.376;2024-03-29T02:34:14;5.00;4.00;2.00
72307;PMS5003;60257;42.638;23.376;2024-03-29T02:36:15;4.00;4.00;2.33
72307;PMS5003;60257;42.638;23.376;2024-03-29T02:38:15;2.67;2.67;1.33
72307;PMS5003;60257;42.638;23.376;2024-03-29T02:40:16;4.00;2.67;1.33
72307;PMS5003;60257;42.638;23.376;2024-03-29T02:42:16;4.67;4.67;2.00
72307;PMS5003;60257;42.638;23.376;2024-03-29T02:44:17;5.00;5.00;2.00
72307;PMS5003;60257;42.638;23.376;2024-03-29T02:46:17;3.00;3.00;2.00
72307;PMS5003;60257;42.638;23.376;2024-03-29T02:48:17;4.00;4.00;2.00
72307;PMS5003;60257;42.638;23.376;2024-03-29T02:50:18;7.00;4.00;3.00
72307;PMS5003;60257;42.638;23.376;2024-03-29T02:52:18;2.00;2.00;1.00
72307;PMS5003;60257;42.638;23.376;2024-03-29T02:54:19;3.67;3.33;1.33
72307;PMS5003;60257;42.638;23.376;2024-03-29T02:56:19;2.00;2.00;1.00
72307;PMS5003;60257;42.638;23.376;2024-03-29T02:58:23;4.00;4.00;3.00
72307;PMS5003;60257;42.638;23.376;2024-03-29T03:00:23;5.00;5.00;2.00
72307;PMS5003;60257;42.638;23.376;2024-03-29T03:02:24;3.67;3.67;2.00
72307;PMS5003;60257;42.638;23.376;2024-03-29T03:04:24;2.67;2.67;1.00
72307;PMS5003;60257;42.638;23.376;2024-03-29T03:06:24;4.00;4.00;2.00
72307;PMS5003;60257;42.638;23.376;2024-03-29T03:08:25;6.00;3.33;2.00
72307;PMS5003;60257;42.638;23.376;2024-03-29T03:10:47;4.00;3.67;2.00
72307;PMS5003;60257;42.638;23.376;2024-03-29T03:12:56;3.33;3.33;2.00
72307;PMS5003;60257;42.638;23.376;2024-03-29T03:15:00;4.00;4.00;2.00
72307;PMS5003;60257;42.638;23.376;2024-03-29T03:17:00;3.00;2.67;1.00
72307;PMS5003;60257;42.638;23.376;2024-03-29T03:19:01;5.00;4.00;3.00
72307;PMS5003;60257;42.638;23.376;2024-03-29T03:21:01;2.00;2.00;1.00
72307;PMS5003;60257;42.638;23.376;2024-03-29T03:23:02;3.33;3.00;2.00
72307;PMS5003;60257;42.638;23.376;2024-03-29T03:25:03;5.00;4.00;3.00
72307;PMS5003;60257;42.638;23.376;2024-03-29T03:27:04;4.00;4.00;2.00
72307;PMS5003;60257;42.638;23.376;2024-03-29T03:29:04;5.00;4.00;2.00
72307;PMS5003;60257;42.638;23.376;2024-03-29T03:31:04;4.00;4.00;2.00
72307;PMS5003;60257;42.638;23.376;2024-03-29T03:33:07;4.00;2.33;1.67
72307;PMS5003;60257;42.638;23.376;2024-03-29T03:35:07;5.00;5.00;2.00
72307;PMS5003;60257;42.638;23.376;2024-03-29T03:37:08;4.67;4.67;3.00
72307;PMS5003;60257;42.638;23.376;2024-03-29T03:39:08;5.00;3.33;1.00
72307;PMS5003;60257;42.638;23.376;2024-03-29T03:41:09;3.33;3.00;2.00
72307;PMS5003;60257;42.638;23.376;2024-03-29T03:43:09;6.00;3.33;2.00
72307;PMS5003;60257;42.638;23.376;2024-03-29T03:45:10;4.00;4.00;2.00
72307;PMS5003;60257;42.638;23.376;2024-03-29T03:47:10;3.33;3.33;2.33
72307;PMS5003;60257;42.638;23.376;2024-03-29T03:49:10;2.00;2.00;1.00
72307;PMS5003;60257;42.638;23.376;2024-03-29T03:51:11;4.00;3.00;2.00
72307;PMS5003;60257;42.638;23.376;2024-03-29T03:53:11;4.00;4.00;2.00
72307;PMS5003;60257;42.638;23.376;2024-03-29T03:55:12;5.00;4.67;1.00
72307;PMS5003;60257;42.638;23.376;2024-03-29T03:57:12;3.00;2.00;1.00
72307;PMS5003;60257;42.638;23.376;2024-03-29T03:59:14;6.00;5.67;3.00
72307;PMS5003;60257;42.638;23.376;2024-03-29T04:01:14;3.00;2.00;1.33
72307;PMS5003;60257;42.638;23.376;2024-03-29T04:03:15;3.00;3.00;1.67
72307;PMS5003;60257;42.638;23.376;2024-03-29T04:05:16;5.33;4.00;2.00
72307;PMS5003;60257;42.638;23.376;2024-03-29T04:07:20;4.00;4.00;2.67
72307;PMS5003;60257;42.638;23.376;2024-03-29T04:09:20;5.00;3.67;2.00
72307;PMS5003;60257;42.638;23.376;2024-03-29T04:11:21;4.00;3.00;2.00
72307;PMS5003;60257;42.638;23.376;2024-03-29T04:13:21;3.00;3.00;2.00
72307;PMS5003;60257;42.638;23.376;2024-03-29T04:15:22;3.00;3.00;1.00
72307;PMS5003;60257;42.638;23.376;2024-03-29T04:17:23;5.00;4.33;2.00
72307;PMS5003;60257;42.638;23.376;2024-03-29T04:19:23;4.00;4.00;2.00
72307;PMS5003;60257;42.638;23.376;2024-03-29T04:21:24;7.67;6.00;3.00
72307;PMS5003;60257;42.638;23.376;2024-03-29T04:23:24;3.67;3.67;2.00
72307;PMS5003;60257;42.638;23.376;2024-03-29T04:25:25;5.00;2.00;1.00
72307;PMS5003;60257;42.638;23.376;2024-03-29T04:27:25;4.67;4.00;2.00
72307;PMS5003;60257;42.638;23.376;2024-03-29T04:29:26;10.67;8.67;5.00
72307;PMS5003;60257;42.638;23.376;2024-03-29T04:31:26;7.33;7.33;4.00
72307;PMS5003;60257;42.638;23.376;2024-03-29T04:33:26;6.67;5.00;4.00
72307;PMS5003;60257;42.638;23.376;2024-03-29T04:35:27;11.00;7.00;4.33
72307;PMS5003;60257;42.638;23.376;2024-03-29T04:37:27;7.33;5.00;5.00
72307;PMS5003;60257;42.638;23.376;2024-03-29T04:39:28;7.00;4.00;3.00
72307;PMS5003;60257;42.638;23.376;2024-03-29T04:41:28;11.67;8.00;4.00
72307;PMS5003;60257;42.638;23.376;2024-03-29T04:43:29;5.67;4.67;2.00
72307;PMS5003;60257;42.638;23.376;2024-03-29T04:45:29;5.33;5.33;3.33
72307;PMS5003;60257;42.638;23.376;2024-03-29T04:47:29;6.00;6.00;5.00
72307;PMS5003;60257;42.638;23.376;2024-03-29T04:49:30;17.33;14.33;10.67
72307;PMS5003;60257;42.638;23.376;2024-03-29T04:51:33;14.00;12.67;9.00
72307;PMS5003;60257;42.638;23.376;2024-03-29T04:53:36;7.00;7.00;5.00
72307;PMS5003;60257;42.638;23.376;2024-03-29T04:55:38;8.00;8.00;6.00
72307;PMS5003;60257;42.638;23.376;2024-03-29T04:57:39;10.33;8.00;5.00
72307;PMS5003;60257;42.638;23.376;2024-03-29T04:59:39;9.33;7.67;4.67
72307;PMS5003;60257;42.638;23.376;2024-03-29T05:01:40;8.00;8.00;4.00
72307;PMS5003;60257;42.638;23.376;2024-03-29T05:03:40;9.33;7.00;5.00
72307;PMS5003;60257;42.638;23.376;2024-03-29T05:05:41;9.67;8.33;4.67
72307;PMS5003;60257;42.638;23.376;2024-03-29T05:07:41;13.67;12.00;7.00
72307;PMS5003;60257;42.638;23.376;2024-03-29T05:09:41;7.67;7.67;5.33
72307;PMS5003;60257;42.638;23.376;2024-03-29T05:11:42;15.33;9.00;7.00
72307;PMS5003;60257;42.638;23.376;2024-03-29T05:13:42;13.33;9.33;6.00
72307;PMS5003;60257;42.638;23.376;2024-03-29T05:15:43;11.00;9.33;6.00
72307;PMS5003;60257;42.638;23.376;2024-03-29T05:17:43;10.00;10.00;5.00
72307;PMS5003;60257;42.638;23.376;2024-03-29T05:19:43;80.00;65.50;35.00
72307;PMS5003;60257;42.638;23.376;2024-03-29T05:21:44;17.67;10.67;9.33
72307;PMS5003;60257;42.638;23.376;2024-03-29T05:23:44;16.33;16.33;10.00
72307;PMS5003;60257;42.638;23.376;2024-03-29T05:25:44;13.00;12.00;7.00
72307;PMS5003;60257;42.638;23.376;2024-03-29T05:27:45;13.33;12.67;8.00
72307;PMS5003;60257;42.638;23.376;2024-03-29T05:29:45;36.67;30.67;18.33
72307;PMS5003;60257;42.638;23.376;2024-03-29T05:31:45;32.00;30.00;18.00
72307;PMS5003;60257;42.638;23.376;2024-03-29T05:33:46;14.00;14.00;8.67
72307;PMS5003;60257;42.638;23.376;2024-03-29T05:35:46;19.33;14.67;8.00
72307;PMS5003;60257;42.638;23.376;2024-03-29T05:37:47;12.67;12.00;7.33
72307;PMS5003;60257;42.638;23.376;2024-03-29T05:39:54;13.67;10.00;6.00
72307;PMS5003;60257;42.638;23.376;2024-03-29T05:41:59;10.33;8.00;4.00
72307;PMS5003;60257;42.638;23.376;2024-03-29T05:43:59;10.67;10.33;7.00
72307;PMS5003;60257;42.638;23.376;2024-03-29T05:45:59;15.00;13.67;8.00
72307;PMS5003;60257;42.638;23.376;2024-03-29T05:48:02;15.67;15.33;8.33
72307;PMS5003;60257;42.638;23.376;2024-03-29T05:50:03;17.67;14.00;10.00
72307;PMS5003;60257;42.638;23.376;2024-03-29T05:52:03;15.67;15.33;8.67
72307;PMS5003;60257;42.638;23.376;2024-03-29T05:54:04;12.33;11.33;7.00
72307;PMS5003;60257;42.638;23.376;2024-03-29T05:56:05;15.33;12.00;8.00
72307;PMS5003;60257;42.638;23.376;2024-03-29T05:58:05;16.33;12.00;8.00
72307;PMS5003;60257;42.638;23.376;2024-03-29T06:00:07;12.00;11.00;6.67
72307;PMS5003;60257;42.638;23.376;2024-03-29T06:02:11;14.33;10.00;7.00
72307;PMS5003;60257;42.638;23.376;2024-03-29T06:04:12;10.67;8.00;6.00
72307;PMS5003;60257;42.638;23.376;2024-03-29T06:06:19;3.75;3.75;3.50
72307;PMS5003;60257;42.638;23.376;2024-03-29T06:08:23;9.33;8.33;5.67
72307;PMS5003;60257;42.638;23.376;2024-03-29T06:10:26;5.00;5.00;3.33
72307;PMS5003;60257;42.638;23.376;2024-03-29T06:12:27;9.00;6.00;4.00
72307;PMS5003;60257;42.638;23.376;2024-03-29T06:14:28;5.00;5.00;2.75
72307;PMS5003;60257;42.638;23.376;2024-03-29T06:16:46;6.00;5.33;3.00
72307;PMS5003;60257;42.638;23.376;2024-03-29T06:19:05;9.00;7.00;3.00
72307;PMS5003;60257;42.638;23.376;2024-03-29T06:21:05;8.00;7.25;4.00
72307;PMS5003;60257;42.638;23.376;2024-03-29T06:23:06;8.00;7.00;4.00
72307;PMS5003;60257;42.638;23.376;2024-03-29T06:25:06;8.00;6.50;4.00
72307;PMS5003;60257;42.638;23.376;2024-03-29T06:27:08;8.00;7.00;4.00
72307;PMS5003;60257;42.638;23.376;2024-03-29T06:29:08;5.50;5.25;3.25
72307;PMS5003;60257;42.638;23.376;2024-03-29T06:31:11;6.75;5.75;3.00
72307;PMS5003;60257;42.638;23.376;2024-03-29T06:33:12;7.25;6.75;4.50
72307;PMS5003;60257;42.638;23.376;2024-03-29T06:35:12;8.00;7.00;4.00
72307;PMS5003;60257;42.638;23.376;2024-03-29T06:37:13;6.25;6.25;4.00
72307;PMS5003;60257;42.638;23.376;2024-03-29T06:39:13;7.50;7.50;4.50
72307;PMS5003;60257;42.638;23.376;2024-03-29T06:41:14;8.00;6.75;5.00
72307;PMS5003;60257;42.638;23.376;2024-03-29T06:43:15;10.00;7.25;3.00
72307;PMS5003;60257;42.638;23.376;2024-03-29T06:45:15;4.75;4.75;2.25
72307;PMS5003;60257;42.638;23.376;2024-03-29T06:47:15;5.00;4.75;2.00
72307;PMS5003;60257;42.638;23.376;2024-03-29T06:49:16;3.25;3.00;2.00
72307;PMS5003;60257;42.638;23.376;2024-03-29T06:51:17;4.00;4.00;2.25
72307;PMS5003;60257;42.638;23.376;2024-03-29T06:53:18;6.00;3.00;1.25
72307;PMS5003;60257;42.638;23.376;2024-03-29T06:55:18;5.50;3.00;2.00
72307;PMS5003;60257;42.638;23.376;2024-03-29T06:57:19;6.25;5.25;2.00
72307;PMS5003;60257;42.638;23.376;2024-03-29T06:59:23;4.00;4.00;3.00
72307;PMS5003;60257;42.638;23.376;2024-03-29T07:01:24;4.00;3.00;2.00
72307;PMS5003;60257;42.638;23.376;2024-03-29T07:03:24;6.00;4.00;2.75
72307;PMS5003;60257;42.638;23.376;2024-03-29T07:05:25;3.00;2.50;1.25
72307;PMS5003;60257;42.638;23.376;2024-03-29T07:07:25;2.75;2.75;2.00
72307;PMS5003;60257;42.638;23.376;2024-03-29T07:09:25;3.50;3.50;2.50
72307;PMS5003;60257;42.638;23.376;2024-03-29T07:11:26;4.75;4.00;2.00
72307;PMS5003;60257;42.638;23.376;2024-03-29T07:13:27;2.50;2.50;1.00
72307;PMS5003;60257;42.638;23.376;2024-03-29T07:15:29;3.50;3.00;1.75
72307;PMS5003;60257;42.638;23.376;2024-03-29T07:17:30;2.50;2.50;1.25
72307;PMS5003;60257;42.638;23.376;2024-03-29T07:19:30;3.75;3.50;2.00
72307;PMS5003;60257;42.638;23.376;2024-03-29T07:21:31;4.50;3.00;1.00
72307;PMS5003;60257;42.638;23.376;2024-03-29T07:23:32;3.00;3.00;1.00
72307;PMS5003;60257;42.638;23.376;2024-03-29T07:25:32;1.75;1.75;0.75
72307;PMS5003;60257;42.638;23.376;2024-03-29T07:27:32;3.75;1.50;1.00
72307;PMS5003;60257;42.638;23.376;2024-03-29T07:29:36;3.00;3.00;1.00
72307;PMS5003;60257;42.638;23.376;2024-03-29T07:31:36;2.50;2.50;1.00
72307;PMS5003;60257;42.638;23.376;2024-03-29T07:33:37;1.25;1.25;0.75
72307;PMS5003;60257;42.638;23.376;2024-03-29T07:35:37;1.75;1.75;0.75
72307;PMS5003;60257;42.638;23.376;2024-03-29T07:37:41;2.25;1.00;0.25
72307;PMS5003;60257;42.638;23.376;2024-03-29T07:39:45;2.00;2.00;0.75
72307;PMS5003;60257;42.638;23.376;2024-03-29T07:41:46;1.25;1.25;0.25
72307;PMS5003;60257;42.638;23.376;2024-03-29T07:43:51;2.25;2.00;0.75
72307;PMS5003;60257;42.638;23.376;2024-03-29T07:45:53;2.00;1.75;0.75
72307;PMS5003;60257;42.638;23.376;2024-03-29T07:47:54;4.00;3.25;2.00
72307;PMS5003;60257;42.638;23.376;2024-03-29T07:49:54;5.00;3.00;1.00
72307;PMS5003;60257;42.638;23.376;2024-03-29T07:51:55;3.00;2.25;1.00
72307;PMS5003;60257;42.638;23.376;2024-03-29T07:53:55;4.00;3.00;2.00
72307;PMS5003;60257;42.638;23.376;2024-03-29T07:55:56;2.75;2.75;1.75
72307;PMS5003;60257;42.638;23.376;2024-03-29T07:57:56;4.50;3.00;1.00
72307;PMS5003;60257;42.638;23.376;2024-03-29T07:59:56;6.50;3.75;1.75
72307;PMS5003;60257;42.638;23.376;2024-03-29T08:01:57;2.50;2.50;2.00
72307;PMS5003;60257;42.638;23.376;2024-03-29T08:03:58;3.75;2.00;0.75
72307;PMS5003;60257;42.638;23.376;2024-03-29T08:05:58;4.50;2.25;1.00
72307;PMS5003;60257;42.638;23.376;2024-03-29T08:08:05;2.00;1.75;1.00
72307;PMS5003;60257;42.638;23.376;2024-03-29T08:10:06;4.75;2.00;1.00
72307;PMS5003;60257;42.638;23.376;2024-03-29T08:12:07;2.00;2.00;1.00
72307;PMS5003;60257;42.638;23.376;2024-03-29T08:14:07;2.00;2.00;1.00
72307;PMS5003;60257;42.638;23.376;2024-03-29T08:16:08;2.75;2.75;1.00
72307;PMS5003;60257;42.638;23.376;2024-03-29T08:18:09;2.25;2.25;2.00
72307;PMS5003;60257;42.638;23.376;2024-03-29T08:20:09;5.25;4.00;2.00
72307;PMS5003;60257;42.638;23.376;2024-03-29T08:22:10;3.75;3.25;2.00
72307;PMS5003;60257;42.638;23.376;2024-03-29T08:24:10;4.00;4.00;2.00
72307;PMS5003;60257;42.638;23.376;2024-03-29T08:26:11;2.75;1.75;0.00
72307;PMS5003;60257;42.638;23.376;2024-03-29T08:28:12;3.50;2.50;1.50
72307;PMS5003;60257;42.638;23.376;2024-03-29T08:30:12;4.25;2.25;1.00
72307;PMS5003;60257;42.638;23.376;2024-03-29T08:32:12;2.75;2.75;1.00
72307;PMS5003;60257;42.638;23.376;2024-03-29T08:34:13;3.50;2.00;0.25
72307;PMS5003;60257;42.638;23.376;2024-03-29T08:36:13;2.50;2.00;1.00
72307;PMS5003;60257;42.638;23.376;2024-03-29T08:38:14;5.50;4.00;1.00
72307;PMS5003;60257;42.638;23.376;2024-03-29T08:40:15;4.25;3.25;1.00
72307;PMS5003;60257;42.638;23.376;2024-03-29T08:42:16;2.00;1.00;1.00
72307;PMS5003;60257;42.638;23.376;2024-03-29T08:44:17;3.00;2.00;1.00
72307;PMS5003;60257;42.638;23.376;2024-03-29T08:46:17;3.75;2.25;1.00
72307;PMS5003;60257;42.638;23.376;2024-03-29T08:48:18;4.00;3.25;1.00
72307;PMS5003;60257;42.638;23.376;2024-03-29T08:50:18;4.50;3.75;1.50
72307;PMS5003;60257;42.638;23.376;2024-03-29T08:52:18;2.00;1.00;0.00
72307;PMS5003;60257;42.638;23.376;2024-03-29T08:54:19;5.75;4.00;1.25
72307;PMS5003;60257;42.638;23.376;2024-03-29T08:56:19;2.00;2.00;1.00
72307;PMS5003;60257;42.638;23.376;2024-03-29T08:58:20;3.00;2.00;0.75
72307;PMS5003;60257;42.638;23.376;2024-03-29T09:00:20;4.25;3.25;1.00
72307;PMS5003;60257;42.638;23.376;2024-03-29T09:02:21;3.50;2.75;1.00
72307;PMS5003;60257;42.638;23.376;2024-03-29T09:04:21;1.25;1.00;1.00
72307;PMS5003;60257;42.638;23.376;2024-03-29T09:06:22;2.00;1.00;0.00
72307;PMS5003;60257;42.638;23.376;2024-03-29T09:08:22;2.50;2.25;1.00
72307;PMS5003;60257;42.638;23.376;2024-03-29T09:10:23;3.00;2.75;1.00
72307;PMS5003;60257;42.638;23.376;2024-03-29T09:12:24;2.50;1.00;0.25
72307;PMS5003;60257;42.638;23.376;2024-03-29T09:14:25;3.50;2.25;2.00
72307;PMS5003;60257;42.638;23.376;2024-03-29T09:16:25;2.00;2.00;1.00
72307;PMS5003;60257;42.638;23.376;2024-03-29T09:18:26;1.00;1.00;0.00
72307;PMS5003;60257;42.638;23.376;2024-03-29T09:20:27;0.50;0.00;0.00
72307;PMS5003;60257;42.638;23.376;2024-03-29T09:22:27;1.00;1.00;0.00
72307;PMS5003;60257;42.638;23.376;2024-03-29T09:24:28;2.75;1.00;0.00
72307;PMS5003;60257;42.638;23.376;2024-03-29T09:26:29;0.25;0.25;0.25
72307;PMS5003;60257;42.638;23.376;2024-03-29T09:28:29;3.75;2.00;1.00
72307;PMS5003;60257;42.638;23.376;2024-03-29T09:30:31;2.25;2.25;1.50
72307;PMS5003;60257;42.638;23.376;2024-03-29T09:32:32;3.25;3.00;0.75
72307;PMS5003;60257;42.638;23.376;2024-03-29T09:34:32;1.00;1.00;0.50
72307;PMS5003;60257;42.638;23.376;2024-03-29T09:36:33;2.00;2.00;1.00
72307;PMS5003;60257;42.638;23.376;2024-03-29T09:38:33;2.25;2.00;1.00
72307;PMS5003;60257;42.638;23.376;2024-03-29T09:40:33;4.00;4.00;1.00
72307;PMS5003;60257;42.638;23.376;2024-03-29T09:42:34;2.50;2.00;1.00
72307;PMS5003;60257;42.638;23.376;2024-03-29T09:44:37;2.25;1.00;0.00
72307;PMS5003;60257;42.638;23.376;2024-03-29T09:46:38;1.25;1.25;0.00
72307;PMS5003;60257;42.638;23.376;2024-03-29T09:48:40;3.50;2.75;1.00
72307;PMS5003;60257;42.638;23.376;2024-03-29T09:50:42;3.75;3.00;1.00
72307;PMS5003;60257;42.638;23.376;2024-03-29T09:52:42;3.25;2.50;1.00
72307;PMS5003;60257;42.638;23.376;2024-03-29T09:54:43;2.75;2.75;1.00
72307;PMS5003;60257;42.638;23.376;2024-03-29T09:56:43;2.50;1.00;0.00
72307;PMS5003;60257;42.638;23.376;2024-03-29T09:58:44;4.00;4.00;3.00
72307;PMS5003;60257;42.638;23.376;2024-03-29T10:00:45;2.00;2.00;1.50
72307;PMS5003;60257;42.638;23.376;2024-03-29T10:02:45;2.00;1.00;0.00
72307;PMS5003;60257;42.638;23.376;2024-03-29T10:04:49;4.00;4.00;3.00
72307;PMS5003;60257;42.638;23.376;2024-03-29T10:06:53;2.00;2.00;1.00
72307;PMS5003;60257;42.638;23.376;2024-03-29T10:08:55;3.00;3.00;1.00
72307;PMS5003;60257;42.638;23.376;2024-03-29T10:10:58;3.50;2.00;1.00
72307;PMS5003;60257;42.638;23.376;2024-03-29T10:12:58;4.00;2.50;1.50
72307;PMS5003;60257;42.638;23.376;2024-03-29T10:14:58;3.25;3.00;1.00
72307;PMS5003;60257;42.638;23.376;2024-03-29T10:17:20;3.25;3.25;2.00
72307;PMS5003;60257;42.638;23.376;2024-03-29T10:19:21;2.00;2.00;1.00
72307;PMS5003;60257;42.638;23.376;2024-03-29T10:21:24;2.00;2.00;1.25
72307;PMS5003;60257;42.638;23.376;2024-03-29T10:23:26;3.00;2.75;1.25
72307;PMS5003;60257;42.638;23.376;2024-03-29T10:25:27;3.25;3.25;1.25
72307;PMS5003;60257;42.638;23.376;2024-03-29T10:27:32;2.50;2.50;0.75
72307;PMS5003;60257;42.638;23.376;2024-03-29T10:29:32;2.50;2.50;2.00
72307;PMS5003;60257;42.638;23.376;2024-03-29T10:31:34;3.00;3.00;1.50
72307;PMS5003;60257;42.638;23.376;2024-03-29T10:33:37;3.50;3.00;1.25
72307;PMS5003;60257;42.638;23.376;2024-03-29T10:35:38;2.00;2.00;1.00
72307;PMS5003;60257;42.638;23.376;2024-03-29T10:37:42;4.00;2.00;1.00
72307;PMS5003;60257;42.638;23.376;2024-03-29T10:39:43;2.75;2.25;1.75
72307;PMS5003;60257;42.638;23.376;2024-03-29T10:41:46;4.25;2.75;1.00
72307;PMS5003;60257;42.638;23.376;2024-03-29T10:43:47;4.00;3.00;1.00
72307;PMS5003;60257;42.638;23.376;2024-03-29T10:45:50;3.25;3.00;1.00
72307;PMS5003;60257;42.638;23.376;2024-03-29T10:47:54;1.25;1.25;1.00
72307;PMS5003;60257;42.638;23.376;2024-03-29T10:49:56;3.00;2.50;1.00
72307;PMS5003;60257;42.638;23.376;2024-03-29T10:51:58;1.75;1.00;0.00
72307;PMS5003;60257;42.638;23.376;2024-03-29T10:53:59;3.75;3.00;1.25
72307;PMS5003;60257;42.638;23.376;2024-03-29T10:56:01;3.00;3.00;2.00
72307;PMS5003;60257;42.638;23.376;2024-03-29T10:58:07;6.00;5.00;2.00
72307;PMS5003;60257;42.638;23.376;2024-03-29T11:00:12;3.75;2.50;1.00
72307;PMS5003;60257;42.638;23.376;2024-03-29T11:02:28;3.00;3.00;2.00
72307;PMS5003;60257;42.638;23.376;2024-03-29T11:04:34;6.75;6.00;4.00
72307;PMS5003;60257;42.638;23.376;2024-03-29T11:06:39;2.00;1.00;0.00
72307;PMS5003;60257;42.638;23.376;2024-03-29T11:08:41;5.00;3.25;2.00
72307;PMS5003;60257;42.638;23.376;2024-03-29T11:10:47;4.50;3.50;1.25
72307;PMS5003;60257;42.638;23.376;2024-03-29T11:12:54;4.00;3.00;1.00
72307;PMS5003;60257;42.638;23.376;2024-03-29T11:15:04;1.50;1.50;1.00
72307;PMS5003;60257;42.638;23.376;2024-03-29T11:17:10;6.25;5.00;3.00
72307;PMS5003;60257;42.638;23.376;2024-03-29T11:19:14;5.75;4.75;3.00
72307;PMS5003;60257;42.638;23.376;2024-03-29T11:21:15;4.00;4.00;1.25
72307;PMS5003;60257;42.638;23.376;2024-03-29T11:23:18;5.00;4.00;1.75
72307;PMS5003;60257;42.638;23.376;2024-03-29T11:25:20;2.75;2.00;1.75
72307;PMS5003;60257;42.638;23.376;2024-03-29T11:27:22;4.00;3.00;1.00
72307;PMS5003;60257;42.638;23.376;2024-03-29T11:29:24;1.75;1.75;1.00
72307;PMS5003;60257;42.638;23.376;2024-03-29T11:31:24;2.00;2.00;1.50
72307;PMS5003;60257;42.638;23.376;2024-03-29T11:33:26;3.25;3.25;2.00
72307;PMS5003;60257;42.638;23.376;2024-03-29T11:35:30;5.00;2.50;0.50
72307;PMS5003;60257;42.638;23.376;2024-03-29T11:37:32;3.00;3.00;2.00
72307;PMS5003;60257;42.638;23.376;2024-03-29T11:39:36;5.00;4.00;2.00